createdAt,value
2019-02-18T00:00:37.585Z,100946.86
2019-02-18T00:03:07.408Z,100947.98
2019-02-18T00:05:35.359Z,100949.77
2019-02-18T00:08:03.407Z,100944.81
2019-02-18T00:10:31.352Z,100948.53
2019-02-18T00:12:59.173Z,100954.53
2019-02-18T00:15:27.035Z,100951.45
2019-02-18T00:17:55.051Z,100948.64
2019-02-18T00:20:22.936Z,100944.91
2019-02-18T00:22:50.867Z,100941.34
2019-02-18T00:25:18.642Z,100944.97
2019-02-18T00:27:46.566Z,100943.09
2019-02-18T00:30:24.208Z,100942.34
2019-02-18T00:32:52.033Z,100939.64
2019-02-18T00:35:20.008Z,100936.73
2019-02-18T00:37:47.942Z,100941.03
2019-02-18T00:40:15.825Z,100935.22
2019-02-18T00:42:43.647Z,100931.39
2019-02-18T00:45:11.711Z,100933.71
2019-02-18T00:47:39.836Z,100939.52
2019-02-18T00:50:07.917Z,100931.00
2019-02-18T00:52:35.955Z,100931.56
2019-02-18T00:55:04.074Z,100920.70
2019-02-18T00:57:31.914Z,100916.84
2019-02-18T00:59:59.764Z,100917.52
2019-02-18T01:02:27.866Z,100911.41
2019-02-18T01:04:55.965Z,100903.53
2019-02-18T01:07:34.218Z,100900.91
2019-02-18T01:09:53.835Z,100895.48
2019-02-18T01:12:22.219Z,100894.73
2019-02-18T01:14:50.703Z,100894.73
2019-02-18T01:17:18.461Z,100899.39
2019-02-18T01:19:46.298Z,100896.09
2019-02-18T01:22:14.372Z,100897.31
2019-02-18T01:24:42.350Z,100886.64
2019-02-18T01:27:10.237Z,100892.15
2019-02-18T01:29:39.201Z,100884.22
2019-02-18T01:32:21.183Z,100891.33
2019-02-18T01:34:49.024Z,100883.16
2019-02-18T01:37:16.968Z,100885.52
2019-02-18T01:39:44.959Z,100877.08
2019-02-18T01:42:12.805Z,100884.61
2019-02-18T01:44:40.719Z,100881.22
2019-02-18T01:47:08.469Z,100883.19
2019-02-18T01:49:36.610Z,100869.23
2019-02-18T01:52:04.574Z,100872.16
2019-02-18T01:54:32.493Z,100866.27
2019-02-18T01:57:00.319Z,100865.61
2019-02-18T01:59:28.380Z,100869.79
2019-02-18T02:01:56.315Z,100869.20
2019-02-18T02:04:24.293Z,100867.25
2019-02-18T02:06:52.093Z,100872.55
2019-02-18T02:09:20.018Z,100871.42
2019-02-18T02:11:47.807Z,100861.23
2019-02-18T02:14:15.886Z,100855.69
2019-02-18T02:16:43.802Z,100851.86
2019-02-18T02:19:11.792Z,100855.03
2019-02-18T02:21:39.649Z,100855.59
2019-02-18T02:24:08.058Z,100852.59
2019-02-18T02:26:35.933Z,100856.69
2019-02-18T02:29:04.128Z,100849.84
2019-02-18T02:31:32.143Z,100847.84
2019-02-18T02:34:14.022Z,100847.64
2019-02-18T02:36:41.840Z,100850.91
2019-02-18T02:39:09.729Z,100847.61
2019-02-18T02:41:37.623Z,100849.02
2019-02-18T02:44:05.695Z,100846.75
2019-02-18T02:46:33.645Z,100851.05
2019-02-18T02:49:04.719Z,100847.95
2019-02-18T02:51:32.538Z,100842.68
2019-02-18T02:54:00.378Z,100839.96
2019-02-18T02:56:28.257Z,100828.57
2019-02-18T02:58:56.076Z,100831.63
2019-02-18T03:01:24.263Z,100829.87
2019-02-18T03:03:52.129Z,100830.16
2019-02-18T03:06:20.059Z,100838.86
2019-02-18T03:08:47.950Z,100840.17
2019-02-18T03:11:15.778Z,100839.03
2019-02-18T03:13:43.575Z,100840.58
2019-02-18T03:16:11.527Z,100831.86
2019-02-18T03:18:39.351Z,100836.23
2019-02-18T03:21:07.294Z,100837.54
2019-02-18T03:23:35.169Z,100841.94
2019-02-18T03:26:03.168Z,100832.86
2019-02-18T03:29:27.644Z,100838.57
2019-02-18T03:31:55.568Z,100835.27
2019-02-18T03:34:30.641Z,100833.20
2019-02-18T03:36:59.067Z,100834.81
2019-02-18T03:39:27.025Z,100830.80
2019-02-18T03:41:55.119Z,100831.17
2019-02-18T03:44:22.865Z,100836.78
2019-02-18T03:46:51.679Z,100833.13
2019-02-18T03:49:19.453Z,100833.67
2019-02-18T03:51:47.267Z,100842.52
2019-02-18T03:54:15.347Z,100832.54
2019-02-18T03:56:43.274Z,100835.22
2019-02-18T03:59:11.356Z,100826.62
2019-02-18T04:01:39.703Z,100824.48
2019-02-18T04:04:07.660Z,100828.09
2019-02-18T04:06:35.589Z,100828.26
2019-02-18T04:09:04.601Z,100829.28
2019-02-18T04:11:32.465Z,100827.59
2019-02-18T04:14:00.295Z,100828.97
2019-02-18T04:16:28.144Z,100831.20
2019-02-18T04:18:56.065Z,100830.61
2019-02-18T04:21:23.848Z,100832.08
2019-02-18T04:23:51.658Z,100828.64
2019-02-18T04:26:19.410Z,100826.09
2019-02-18T04:28:47.927Z,100834.41
2019-02-18T04:31:15.834Z,100826.42
2019-02-18T04:33:44.457Z,100824.35
2019-02-18T04:36:12.236Z,100816.03
2019-02-18T04:38:53.617Z,100823.20
2019-02-18T04:41:11.906Z,100818.69
2019-02-18T04:43:42.017Z,100820.00
2019-02-18T04:46:09.486Z,100819.62
2019-02-18T04:48:37.412Z,100818.86
2019-02-18T04:51:06.180Z,100818.92
2019-02-18T04:53:33.973Z,100816.02
2019-02-18T04:56:01.808Z,100819.24
2019-02-18T04:58:30.410Z,100812.97
2019-02-18T05:00:58.319Z,100813.52
2019-02-18T05:03:26.151Z,100817.21
2019-02-18T05:05:54.170Z,100813.45
2019-02-18T05:08:22.125Z,100813.61
2019-02-18T05:10:49.880Z,100809.48
2019-02-18T05:13:17.774Z,100802.34
2019-02-18T05:15:45.522Z,100805.12
2019-02-18T05:18:13.921Z,100792.38
2019-02-18T05:20:41.815Z,100806.80
2019-02-18T05:23:09.749Z,100807.56
2019-02-18T05:25:37.507Z,100809.34
2019-02-18T05:28:05.516Z,100809.80
2019-02-18T05:30:33.357Z,100812.11
2019-02-18T05:33:01.186Z,100807.97
2019-02-18T05:35:28.971Z,100817.94
2019-02-18T05:37:56.979Z,100813.73
2019-02-18T05:40:27.650Z,100806.06
2019-02-18T05:42:55.485Z,100807.91
2019-02-18T05:45:23.283Z,100811.88
2019-02-18T05:47:51.024Z,100810.83
2019-02-18T05:50:18.920Z,100812.67
2019-02-18T05:52:48.724Z,100818.81
2019-02-18T05:55:16.536Z,100821.19
2019-02-18T05:57:44.411Z,100815.97
2019-02-18T06:00:13.401Z,100824.25
2019-02-18T06:02:41.218Z,100819.50
2019-02-18T06:05:09.242Z,100826.03
2019-02-18T06:07:36.969Z,100825.27
2019-02-18T06:10:06.101Z,100826.15
2019-02-18T06:12:33.870Z,100825.47
2019-02-18T06:15:01.781Z,100829.83
2019-02-18T06:17:29.555Z,100829.92
2019-02-18T06:19:57.354Z,100833.30
2019-02-18T06:22:25.095Z,100831.52
2019-02-18T06:24:53.059Z,100832.00
2019-02-18T06:27:20.879Z,100832.00
2019-02-18T06:29:48.778Z,100844.18
2019-02-18T06:32:16.517Z,100845.10
2019-02-18T06:34:44.489Z,100845.96
2019-02-18T06:37:12.310Z,100847.17
2019-02-18T06:39:41.681Z,100846.26
2019-02-18T06:42:11.294Z,100847.11
2019-02-18T06:44:45.784Z,100853.25
2019-02-18T06:47:19.433Z,100853.16
2019-02-18T06:49:47.260Z,100857.87
2019-02-18T06:52:14.972Z,100856.95
2019-02-18T06:54:42.785Z,100867.24
2019-02-18T06:57:45.030Z,100865.69
2019-02-18T07:00:32.481Z,100873.84
2019-02-18T07:03:25.564Z,100870.70
2019-02-18T07:06:04.819Z,100873.60
2019-02-18T07:08:56.107Z,100872.23
2019-02-18T07:11:37.247Z,100878.13
2019-02-18T07:14:12.046Z,100878.75
2019-02-18T07:16:40.640Z,100876.30
2019-02-18T07:19:08.448Z,100874.69
2019-02-18T07:21:36.304Z,100867.23
2019-02-18T07:24:04.168Z,100872.69
2019-02-18T07:26:32.080Z,100868.84
2019-02-18T07:28:59.823Z,100863.30
2019-02-18T07:31:27.692Z,100867.44
2019-02-18T07:33:56.031Z,100866.20
2019-02-18T07:36:24.664Z,100862.34
2019-02-18T07:38:52.408Z,100859.95
2019-02-18T07:41:20.304Z,100858.32
2019-02-18T07:43:48.576Z,100855.77
2019-02-18T07:46:17.207Z,100855.91
2019-02-18T07:48:44.972Z,100853.80
2019-02-18T07:51:14.156Z,100857.01
2019-02-18T07:53:42.018Z,100861.45
2019-02-18T07:56:09.788Z,100862.23
2019-02-18T07:58:37.701Z,100857.61
2019-02-18T08:01:05.525Z,100856.99
2019-02-18T08:03:33.351Z,100853.19
2019-02-18T08:06:01.226Z,100855.39
2019-02-18T08:08:29.156Z,100850.80
2019-02-18T08:10:57.031Z,100851.70
2019-02-18T08:13:26.751Z,100857.52
2019-02-18T08:16:02.151Z,100856.94
2019-02-18T08:18:30.108Z,100859.14
2019-02-18T08:20:57.940Z,100858.27
2019-02-18T08:23:26.563Z,100846.78
2019-02-18T08:25:54.333Z,100849.92
2019-02-18T08:28:22.253Z,100849.20
2019-02-18T08:30:50.056Z,100849.03
2019-02-18T08:33:17.927Z,100846.99
2019-02-18T08:35:45.657Z,100849.25
2019-02-18T08:38:13.450Z,100842.15
2019-02-18T08:40:41.204Z,100841.20
2019-02-18T08:43:09.229Z,100845.50
2019-02-18T08:45:36.987Z,100841.11
2019-02-18T08:48:05.028Z,100841.53
2019-02-18T08:50:32.878Z,100843.42
2019-02-18T08:53:00.794Z,100849.00
2019-02-18T08:55:28.635Z,100848.78
2019-02-18T08:57:56.541Z,100847.50
2019-02-18T09:00:24.403Z,100842.96
2019-02-18T09:02:52.365Z,100851.14
2019-02-18T09:05:20.433Z,100853.37
2019-02-18T09:07:48.491Z,100847.58
2019-02-18T09:10:16.241Z,100855.28
2019-02-18T09:12:44.084Z,100855.28
2019-02-18T09:15:14.124Z,100842.55
2019-02-18T09:17:42.001Z,100847.34
2019-02-18T09:20:10.013Z,100851.14
2019-02-18T09:22:53.293Z,100843.86
2019-02-18T09:25:23.846Z,100846.27
2019-02-18T09:27:51.787Z,100854.73
2019-02-18T09:30:23.820Z,100850.11
2019-02-18T09:32:51.745Z,100851.93
2019-02-18T09:35:19.553Z,100852.80
2019-02-18T09:37:47.404Z,100850.35
2019-02-18T09:40:15.337Z,100851.35
2019-02-18T09:42:43.213Z,100842.40
2019-02-18T09:45:14.554Z,100840.89
2019-02-18T09:47:41.896Z,100848.23
2019-02-18T09:50:09.955Z,100843.31
2019-02-18T09:52:37.911Z,100844.33
2019-02-18T09:55:06.545Z,100845.67
2019-02-18T09:57:34.334Z,100844.97
2019-02-18T10:00:02.449Z,100844.29
2019-02-18T10:02:30.225Z,100838.30
2019-02-18T10:04:58.136Z,100842.02
2019-02-18T10:07:26.126Z,100843.21
2019-02-18T10:09:53.970Z,100846.09
2019-02-18T10:12:21.956Z,100841.89
2019-02-18T10:14:49.834Z,100838.13
2019-02-18T10:17:17.770Z,100832.61
2019-02-18T10:19:47.048Z,100825.48
2019-02-18T10:22:14.902Z,100827.64
2019-02-18T10:24:50.726Z,100826.31
2019-02-18T10:27:12.871Z,100827.24
2019-02-18T10:29:40.799Z,100824.92
2019-02-18T10:32:08.693Z,100825.48
2019-02-18T10:34:37.521Z,100818.00
2019-02-18T10:37:05.378Z,100814.55
2019-02-18T10:39:33.329Z,100809.84
2019-02-18T10:42:01.366Z,100803.77
2019-02-18T10:44:29.572Z,100799.77
2019-02-18T10:46:57.480Z,100795.63
2019-02-18T10:49:25.355Z,100797.92
2019-02-18T10:51:55.226Z,100794.08
2019-02-18T10:54:23.198Z,100792.63
2019-02-18T10:56:51.123Z,100786.45
2019-02-18T10:59:18.995Z,100782.45
2019-02-18T11:01:46.809Z,100775.31
2019-02-18T11:04:14.554Z,100774.52
2019-02-18T11:06:42.584Z,100763.95
2019-02-18T11:09:11.234Z,100765.62
2019-02-18T11:11:39.070Z,100760.91
2019-02-18T11:14:06.938Z,100755.73
2019-02-18T11:16:34.955Z,100752.73
2019-02-18T11:19:02.933Z,100750.69
2019-02-18T11:21:30.825Z,100754.38
2019-02-18T11:23:58.707Z,100750.10
2019-02-18T11:26:26.718Z,100748.53
2019-02-18T11:28:54.580Z,100740.10
2019-02-18T11:31:22.510Z,100744.23
2019-02-18T11:33:50.335Z,100737.24
2019-02-18T11:36:18.352Z,100733.03
2019-02-18T11:38:46.111Z,100731.10
2019-02-18T11:41:14.035Z,100729.71
2019-02-18T11:43:41.767Z,100726.17
2019-02-18T11:46:09.569Z,100715.91
2019-02-18T11:48:37.728Z,100721.80
2019-02-18T11:51:05.727Z,100712.19
2019-02-18T11:53:33.491Z,100718.61
2019-02-18T11:56:01.840Z,100713.30
2019-02-18T11:58:29.618Z,100710.77
2019-02-18T12:00:57.377Z,100701.93
2019-02-18T12:03:25.609Z,100693.36
2019-02-18T12:05:53.396Z,100693.36
2019-02-18T12:08:21.306Z,100683.34
2019-02-18T12:10:49.331Z,100692.36
2019-02-18T12:13:17.134Z,100692.36
2019-02-18T12:15:44.900Z,100689.62
2019-02-18T12:18:13.853Z,100672.97
2019-02-18T12:20:41.877Z,100672.97
2019-02-18T12:23:09.799Z,100668.55
2019-02-18T12:25:41.993Z,100656.25
2019-02-18T12:28:09.784Z,100656.25
2019-02-18T12:30:37.730Z,100647.94
2019-02-18T12:33:05.618Z,100661.06
2019-02-18T12:35:34.694Z,100656.45
2019-02-18T12:38:03.127Z,100647.70
2019-02-18T12:40:30.869Z,100643.09
2019-02-18T12:42:58.651Z,100645.48
2019-02-18T12:45:27.006Z,100634.36
2019-02-18T12:47:55.018Z,100637.44
2019-02-18T12:50:22.858Z,100629.82
2019-02-18T12:52:51.067Z,100629.82
2019-02-18T12:55:19.035Z,100628.05
2019-02-18T12:57:47.130Z,100627.42
2019-02-18T13:00:15.588Z,100624.86
2019-02-18T13:02:45.060Z,100622.81
2019-02-18T13:05:14.009Z,100607.81
2019-02-18T13:07:42.711Z,100616.06
2019-02-18T13:10:11.484Z,100614.02
2019-02-18T13:12:39.785Z,100603.89
2019-02-18T13:15:09.523Z,100597.89
2019-02-18T13:17:37.570Z,100599.87
2019-02-18T13:20:07.588Z,100593.58
2019-02-18T13:22:35.518Z,100590.60
2019-02-18T13:25:03.453Z,100594.84
2019-02-18T13:27:34.407Z,100591.13
2019-02-18T13:30:04.208Z,100589.48
2019-02-18T13:32:32.055Z,100595.20
2019-02-18T13:34:59.961Z,100592.47
2019-02-18T13:37:27.855Z,100590.94
2019-02-18T13:39:55.909Z,100588.91
2019-02-18T13:42:23.670Z,100587.92
2019-02-18T13:44:51.493Z,100588.81
2019-02-18T13:47:19.674Z,100589.35
2019-02-18T13:49:47.415Z,100590.80
2019-02-18T13:52:15.315Z,100581.47
2019-02-18T13:54:43.046Z,100577.66
2019-02-18T13:57:11.006Z,100578.92
2019-02-18T13:59:38.798Z,100571.80
2019-02-18T14:02:07.243Z,100574.76
2019-02-18T14:04:35.446Z,100569.05
2019-02-18T14:07:03.443Z,100561.92
2019-02-18T14:09:31.335Z,100562.64
2019-02-18T14:11:59.161Z,100559.95
2019-02-18T14:14:26.966Z,100572.15
2019-02-18T14:16:54.822Z,100563.08
2019-02-18T14:19:22.835Z,100557.35
2019-02-18T14:21:51.382Z,100551.78
2019-02-18T14:24:19.388Z,100558.07
2019-02-18T14:26:47.113Z,100555.83
2019-02-18T14:29:15.007Z,100553.95
2019-02-18T14:31:43.684Z,100555.70
2019-02-18T14:34:11.742Z,100556.59
2019-02-18T14:36:40.066Z,100555.03
2019-02-18T14:39:11.060Z,100545.84
2019-02-18T14:41:38.882Z,100542.92
2019-02-18T14:44:07.664Z,100544.89
2019-02-18T14:46:35.488Z,100542.75
2019-02-18T14:49:03.509Z,100546.64
2019-02-18T14:51:31.240Z,100541.35
2019-02-18T14:53:59.232Z,100533.92
2019-02-18T14:56:27.087Z,100536.30
2019-02-18T14:58:55.407Z,100534.68
2019-02-18T15:01:23.271Z,100528.86
2019-02-18T15:03:51.358Z,100526.39
2019-02-18T15:06:19.372Z,100528.18
2019-02-18T15:08:47.210Z,100531.48
2019-02-18T15:11:14.977Z,100533.25
2019-02-18T15:13:42.739Z,100522.56
2019-02-18T15:16:10.523Z,100516.02
2019-02-18T15:18:38.391Z,100523.66
2019-02-18T15:21:07.404Z,100516.73
2019-02-18T15:23:35.171Z,100515.70
2019-02-18T15:26:03.476Z,100509.30
2019-02-18T15:28:31.296Z,100514.27
2019-02-18T15:30:59.211Z,100513.24
2019-02-18T15:33:27.004Z,100507.11
2019-02-18T15:35:55.911Z,100501.14
2019-02-18T15:38:23.841Z,100502.91
2019-02-18T15:40:51.741Z,100498.88
2019-02-18T15:43:19.999Z,100507.59
2019-02-18T15:45:47.889Z,100503.05
2019-02-18T15:48:15.821Z,100505.75
2019-02-18T15:50:43.911Z,100500.67
2019-02-18T15:53:11.761Z,100501.05
2019-02-18T15:55:40.977Z,100494.97
2019-02-18T15:58:09.209Z,100499.10
2019-02-18T16:00:37.509Z,100502.58
2019-02-18T16:03:05.481Z,100502.07
2019-02-18T16:05:33.564Z,100497.75
2019-02-18T16:08:01.302Z,100504.41
2019-02-18T16:10:29.206Z,100497.75
2019-02-18T16:12:57.173Z,100493.53
2019-02-18T16:15:25.391Z,100497.45
2019-02-18T16:17:53.242Z,100494.16
2019-02-18T16:20:21.047Z,100491.58
2019-02-18T16:22:48.838Z,100495.64
2019-02-18T16:25:18.732Z,100503.75
2019-02-18T16:27:46.862Z,100494.77
2019-02-18T16:30:14.890Z,100493.48
2019-02-18T16:32:43.102Z,100493.53
2019-02-18T16:35:11.410Z,100488.69
2019-02-18T16:37:39.810Z,100489.26
2019-02-18T16:40:09.907Z,100481.97
2019-02-18T16:42:37.952Z,100489.34
2019-02-18T16:45:07.061Z,100493.05
2019-02-18T16:47:34.973Z,100491.75
2019-02-18T16:50:02.971Z,100500.27
2019-02-18T16:52:30.805Z,100493.48
2019-02-18T16:54:58.656Z,100492.98
2019-02-18T16:57:26.446Z,100492.86
2019-02-18T16:59:54.286Z,100488.34
2019-02-18T17:02:22.165Z,100490.50
2019-02-18T17:04:50.062Z,100487.52
2019-02-18T17:07:17.886Z,100495.19
2019-02-18T17:09:45.629Z,100489.05
2019-02-18T17:12:14.147Z,100492.71
2019-02-18T17:14:41.959Z,100487.20
2019-02-18T17:17:09.806Z,100488.19
2019-02-18T17:19:37.552Z,100484.52
2019-02-18T17:22:05.424Z,100483.66
2019-02-18T17:24:33.351Z,100482.83
2019-02-18T17:27:01.301Z,100482.72
2019-02-18T17:29:30.067Z,100480.53
2019-02-18T17:31:57.942Z,100479.03
2019-02-18T17:34:25.865Z,100479.54
2019-02-18T17:36:53.899Z,100478.87
2019-02-18T17:39:21.658Z,100485.32
2019-02-18T17:41:50.204Z,100483.91
2019-02-18T17:44:20.371Z,100481.37
2019-02-18T17:46:48.007Z,100482.13
2019-02-18T17:49:15.951Z,100482.13
2019-02-18T17:51:43.833Z,100482.39
2019-02-18T17:54:12.009Z,100472.42
2019-02-18T17:56:39.806Z,100472.42
2019-02-18T17:59:08.365Z,100471.88
2019-02-18T18:01:36.265Z,100469.19
2019-02-18T18:04:04.289Z,100464.62
2019-02-18T18:06:32.322Z,100450.27
2019-02-18T18:09:00.217Z,100461.82
2019-02-18T18:11:28.380Z,100451.47
2019-02-18T18:13:56.318Z,100445.77
2019-02-18T18:16:24.085Z,100451.80
2019-02-18T18:18:51.947Z,100449.58
2019-02-18T18:21:19.809Z,100446.83
2019-02-18T18:23:47.765Z,100439.40
2019-02-18T18:26:15.638Z,100438.68
2019-02-18T18:28:44.485Z,100436.80
2019-02-18T18:31:12.271Z,100436.59
2019-02-18T18:33:40.094Z,100438.86
2019-02-18T18:36:08.018Z,100434.20
2019-02-18T18:38:38.686Z,100433.52
2019-02-18T18:41:06.617Z,100438.78
2019-02-18T18:43:34.832Z,100432.54
2019-02-18T18:46:02.828Z,100420.73
2019-02-18T18:48:30.768Z,100424.79
2019-02-18T18:50:58.598Z,100424.79
2019-02-18T18:53:27.414Z,100428.30
2019-02-18T18:55:55.223Z,100410.77
2019-02-18T18:58:23.027Z,100410.77
2019-02-18T19:00:51.107Z,100421.92
2019-02-18T19:03:18.892Z,100410.37
2019-02-18T19:05:48.112Z,100421.62
2019-02-18T19:08:16.031Z,100413.92
2019-02-18T19:10:43.991Z,100413.92
2019-02-18T19:13:11.852Z,100448.52
2019-02-18T19:15:40.188Z,100410.11
2019-02-18T19:18:08.196Z,100413.40
2019-02-18T19:20:36.103Z,100413.40
2019-02-18T19:23:03.981Z,100429.52
2019-02-18T19:25:31.988Z,100423.06
2019-02-18T19:27:59.770Z,100423.40
2019-02-18T19:30:28.543Z,100423.40
2019-02-18T19:32:56.306Z,100420.63
2019-02-18T19:35:24.438Z,100416.18
2019-02-18T19:37:52.310Z,100404.77
2019-02-18T19:40:31.942Z,100407.85
2019-02-18T19:42:59.985Z,100412.16
2019-02-18T19:45:27.877Z,100411.78
2019-02-18T19:47:55.982Z,100411.78
2019-02-18T19:50:23.798Z,100414.16
2019-02-18T19:52:51.567Z,100412.06
2019-02-18T19:55:19.515Z,100406.52
2019-02-18T19:57:47.564Z,100412.02
2019-02-18T20:00:17.322Z,100409.84
2019-02-18T20:02:45.333Z,100406.58
2019-02-18T20:05:13.402Z,100409.53
2019-02-18T20:07:41.354Z,100410.53
2019-02-18T20:10:09.917Z,100405.84
2019-02-18T20:12:37.857Z,100398.61
2019-02-18T20:15:06.020Z,100398.61
2019-02-18T20:17:33.808Z,100400.63
2019-02-18T20:20:01.850Z,100401.91
2019-02-18T20:22:29.793Z,100405.09
2019-02-18T20:24:57.776Z,100397.05
2019-02-18T20:27:25.722Z,100396.13
2019-02-18T20:29:53.561Z,100396.13
2019-02-18T20:32:21.888Z,100396.22
2019-02-18T20:34:49.920Z,100397.90
2019-02-18T20:37:17.910Z,100388.84
2019-02-18T20:39:45.869Z,100390.41
2019-02-18T20:42:17.108Z,100390.70
2019-02-18T20:44:45.177Z,100394.55
2019-02-18T20:47:13.398Z,100387.77
2019-02-18T20:49:41.283Z,100386.05
2019-02-18T20:52:09.288Z,100389.52
2019-02-18T20:54:38.089Z,100383.41
2019-02-18T20:57:06.400Z,100381.33
2019-02-18T20:59:34.420Z,100381.86
2019-02-18T21:02:02.592Z,100379.17
2019-02-18T21:04:31.083Z,100380.58
2019-02-18T21:06:59.035Z,100380.98
2019-02-18T21:09:26.994Z,100378.54
2019-02-18T21:11:54.813Z,100378.89
2019-02-18T21:14:22.704Z,100376.71
2019-02-18T21:16:50.732Z,100373.81
2019-02-18T21:19:19.011Z,100370.08
2019-02-18T21:21:46.988Z,100371.67
2019-02-18T21:24:15.013Z,100368.84
2019-02-18T21:26:42.933Z,100359.08
2019-02-18T21:29:11.767Z,100357.85
2019-02-18T21:31:40.982Z,100355.97
2019-02-18T21:34:09.056Z,100354.30
2019-02-18T21:36:37.389Z,100355.02
2019-02-18T21:39:11.888Z,100355.37
2019-02-18T21:41:40.264Z,100345.34
2019-02-18T21:44:08.321Z,100351.70
2019-02-18T21:46:36.388Z,100351.95
2019-02-18T21:49:04.362Z,100359.04
2019-02-18T21:51:33.347Z,100357.47
2019-02-18T21:54:01.500Z,100362.05
2019-02-18T21:56:29.760Z,100364.33
2019-02-18T21:58:57.821Z,100364.00
2019-02-18T22:01:25.862Z,100359.58
2019-02-18T22:03:53.792Z,100356.22
2019-02-18T22:06:22.143Z,100355.41
2019-02-18T22:08:49.986Z,100364.25
2019-02-18T22:11:17.960Z,100355.88
2019-02-18T22:13:45.787Z,100359.71
2019-02-18T22:16:17.920Z,100354.33
2019-02-18T22:18:45.876Z,100365.45
2019-02-18T22:21:13.734Z,100360.89
2019-02-18T22:23:42.078Z,100364.13
2019-02-18T22:26:10.057Z,100359.21
2019-02-18T22:28:37.955Z,100363.98
2019-02-18T22:31:05.912Z,100358.15
2019-02-18T22:33:33.725Z,100362.33
2019-02-18T22:36:01.484Z,100361.84
2019-02-18T22:38:29.495Z,100364.16
2019-02-18T22:40:57.448Z,100363.53
2019-02-18T22:43:25.290Z,100362.20
2019-02-18T22:45:53.089Z,100356.59
2019-02-18T22:48:21.044Z,100363.38
2019-02-18T22:50:49.008Z,100355.37
2019-02-18T22:53:17.750Z,100355.72
2019-02-18T22:55:45.802Z,100357.23
2019-02-18T22:58:13.810Z,100348.02
2019-02-18T23:00:59.595Z,100348.70
2019-02-18T23:03:27.669Z,100352.97
2019-02-18T23:05:55.658Z,100347.91
2019-02-18T23:08:23.592Z,100345.84
2019-02-18T23:10:51.637Z,100347.97
2019-02-18T23:13:19.862Z,100341.48
2019-02-18T23:15:47.815Z,100345.87
2019-02-18T23:18:15.814Z,100340.81
2019-02-18T23:20:43.621Z,100340.44
2019-02-18T23:23:11.521Z,100343.87
2019-02-18T23:25:39.553Z,100339.80
2019-02-18T23:28:07.428Z,100343.09
2019-02-18T23:30:35.845Z,100340.11
2019-02-18T23:33:03.832Z,100339.87
2019-02-18T23:35:31.758Z,100339.36
2019-02-18T23:37:59.768Z,100335.87
2019-02-18T23:40:27.597Z,100333.66
2019-02-18T23:42:55.458Z,100333.14
2019-02-18T23:45:23.373Z,100332.91
2019-02-18T23:47:51.153Z,100333.21
2019-02-18T23:50:21.473Z,100337.27
2019-02-18T23:52:50.165Z,100343.69
2019-02-18T23:55:18.009Z,100329.93
2019-02-18T23:57:45.906Z,100337.80
